ADDS METAR Data INFO
IDs: Format: Raw Decoded Include TAF

Data at: 1929 UTC 18 Feb 2018

KROA 181854Z 00000KT 10SM CLR 11/M03 A3036 RMK AO2 SLP282 T01111033
KROA 181754Z 01004KT 10SM CLR 11/M03 A3038 RMK AO2 SLP290 T01061033 10111 20050 58002
KROA 181654Z VRB05KT 10SM CLR 10/M03 A3040 RMK AO2 SLP299 T01001028
KROA 181554Z 04005KT 10SM FEW043 08/M03 A3040 RMK AO2 SLP300 T00831028
KROA 181454Z 31012KT 10SM FEW041 08/M02 A3038 RMK AO2 SLP293 T00781022 51049
KROA 181354Z 31012KT 10SM FEW040 06/M02 A3034 RMK AO2 SLP280 T00611022
KROA 181254Z 34011G20KT 10SM FEW040 06/M02 A3028 RMK AO2 SLP262 T00561017
KROA 181154Z 31006KT 10SM FEW044 05/M02 A3023 RMK AO2 SLP244 70009 T00501017 10094 20033 53036
KROA 181054Z 31013G23KT 10SM CLR 07/M01 A3019 RMK AO2 PK WND 30026/1029 SLP227 T00671011
KROA 180954Z 29013G18KT 10SM CLR 07/M01 A3015 RMK AO2 PK WND 29026/0940 SLP214 T00721006
KROA 180854Z 31013G24KT 10SM FEW045 08/01 A3012 RMK AO2 PK WND 31034/0828 SLP205 T00830006 53016
KROA 180754Z 29012G18KT 10SM BKN041 OVC050 09/03 A3009 RMK AO2 SLP194 T00940028
KROA 180654Z 24004KT 10SM OVC038 05/03 A3007 RMK AO2 SLP188 T00500033
KROA 180554Z 00000KT 10SM OVC031 03/03 A3008 RMK AO2 SLP191 60002 T00330028 10039 20011 55012
KROA 180454Z 33006KT 10SM OVC031 03/02 A3007 RMK AO2 SLP190 T00280017 400610011
KROA 180401Z 00000KT 10SM FEW009 OVC032 02/01 A3010 RMK AO2 T00220006
KROA 180354Z 00000KT 10SM BKN007 OVC035 02/01 A3010 RMK AO2 SLP200 T00220011
KROA 180254Z 00000KT 10SM OVC005 02/01 A3011 RMK AO2 RAE47 SLP203 P0000 60002 T00170011 55005
KROA 180154Z 12003KT 10SM -RA OVC006 02/01 A3010 RMK AO2 SLP198 P0001 T00170006
KROA 180054Z 15005KT 6SM -RA BR OVC006 01/01 A3010 RMK AO2 SLP200 RAB01 P0001 T00110006
KROA 172354Z 13006KT 6SM BR SCT004 BKN008 OVC018 01/01 A3013 RMK AO2 SLP209 RAE2259B04E14 P0000 60007 T00110006 10022 20011 58008
KROA 172336Z 13005KT 6SM BR SCT004 BKN008 OVC013 01/01 A3012 RMK AO2 RAE2259B04E14 P0000 T00110006
KROA 172254Z 15008KT 2SM -RA BR BKN004 BKN008 OVC045 01/01 A3013 RMK AO2 SFC VIS 6 RAE22B51 PRESFR SLP210 P0001 T00110006
KROA 172202Z 10004KT 2SM -RA BR BKN004 OVC021 02/01 A3018 RMK AO2 P0001 T00170006
KROA 172154Z 10004KT 2SM -RA BR SCT004 BKN014 OVC021 02/01 A3018 RMK AO2 RAB19 SLP227 P0002 T00170006
KROA 172147Z 07003KT 2SM -RA BR SCT004 BKN016 OVC021 02/01 A3018 RMK AO2 RAB19 P0002 T00170006
KROA 172109Z 07004KT 6SM BR OVC008 02/00 A3017 RMK AO2 T00170000
KROA 172054Z 07005KT 6SM BR SCT008 OVC010 02/01 A3015 RMK AO2 SLP216 60004 T00170006 55018
KROA 171954Z 11009KT 3SM BR SCT007 BKN012 OVC022 02/01 A3013 RMK AO2 RAB1859E54 SLP207 P0003 T00170006
KROA 171910Z 09005KT 5SM -RA BR SCT009 SCT013 OVC020 02/00 A3016 RMK AO2 RAB1859 P0001 T00170000
KROA 171904Z 10007KT 5SM -RA BR BKN010 OVC020 02/00 A3015 RMK AO2 RAB1859 P0000 T00170000
KROA 171854Z 11005KT 7SM SCT010 OVC020 02/00 A3016 RMK AO2 RAE54UPB36E38 SLP219 P0001 T00170000
KROA 171838Z 12006KT 6SM -RA BR BKN018 OVC024 02/00 A3017 RMK AO2 UPB36E38 P0001 T00170000
KROA 171818Z 08007KT 2 1/2SM -RA BR SCT023 OVC029 02/00 A3017 RMK AO2 P0000 T00170000
KROA 171754Z 13007KT 4SM -RA BR FEW018 OVC023 02/00 A3021 RMK AO2 RAB43 SLP234 P0000 60000 T00220000 10044 20022 58033
KROA 171713Z 12008KT 10SM OVC027 03/M02 A3022 RMK AO2 PRESFR T00331017
KROA 171654Z 11006KT 10SM OVC034 03/M01 A3025 RMK AO2 RAE49 SLP249 P0000 T00331011
KROA 171554Z 12007KT 10SM -RA OVC034 03/M01 A3031 RMK AO2 RAB33 SLP268 P0000 T00331011
KROA 171454Z 13007KT 10SM FEW023 OVC035 03/M02 A3031 RMK AO2 SLP266 T00331017 50000
KROA 171354Z 12008KT 10SM SCT019 BKN036 OVC050 04/M01 A3031 RMK AO2 SLP269 T00391006
KROA 171254Z 13012G15KT 10SM SCT030 OVC180 04/00 A3031 RMK AO2 SLP265 T00390000
KROA 171154Z COR 12009KT 10SM FEW050 BKN180 04/00 A3029 RMK AO2 SLP258 70002 T00440000 10061 20033 51012
KROA 171054Z 07004KT 10SM OVC180 04/M01 A3028 RMK AO2 SLP255 T00441006
KROA 170954Z 04004KT 10SM CLR 04/M01 A3027 RMK AO2 SLP251 T00441006
KROA 170854Z 04004KT 10SM CLR 04/M01 A3025 RMK AO2 SLP245 T00441011 53004
KROA 170754Z 03005KT 10SM CLR 05/M01 A3025 RMK AO2 SLP243 T00501011